Time;durP1;ratioP1;P1;durP2;ratioP2;P2;SDS_P1;SDS_P2;PMS_P1;PMS_P2;Temp;Humidity;BMP_temperature;BMP_pressure;BME280_temperature;BME280_humidity;BME280_pressure;Samples;Min_cycle;Max_cycle;Signal;HPM_P1;HPM_P2
2022/05/02 00:01:30;;;;;;;15.73;8.15;;;4.80;87.70;;;;;;5046867;28;20037;-64
2022/05/02 00:03:56;;;;;;;12.18;7.30;;;4.70;88.30;;;;;;5039661;28;20033;-65
2022/05/02 00:06:21;;;;;;;12.27;7.97;;;4.70;87.70;;;;;;5040577;28;20436;-64
2022/05/02 00:08:47;;;;;;;14.88;7.88;;;4.60;87.40;;;;;;5034092;28;20466;-65
2022/05/02 00:11:13;;;;;;;13.52;7.43;;;4.50;87.70;;;;;;5038039;28;20044;-65
2022/05/02 00:13:38;;;;;;;12.38;7.63;;;4.50;87.80;;;;;;5043273;28;20028;-65
2022/05/02 00:16:07;;;;;;;14.10;8.25;;;4.50;88.20;;;;;;5045428;28;20091;-65
2022/05/02 00:18:32;;;;;;;12.20;7.88;;;4.40;88.30;;;;;;5035993;28;20041;-65
2022/05/02 00:20:58;;;;;;;11.82;7.68;;;4.40;88.40;;;;;;5044274;28;20272;-64
2022/05/02 00:23:23;;;;;;;14.07;8.48;;;4.40;88.50;;;;;;5039842;28;20045;-65
2022/05/02 00:25:50;;;;;;;13.70;7.90;;;4.40;88.60;;;;;;5033720;28;20044;-65
2022/05/02 00:28:15;;;;;;;13.68;8.15;;;4.30;88.40;;;;;;5036084;28;20398;-65
2022/05/02 00:30:42;;;;;;;11.18;7.72;;;4.30;88.40;;;;;;5044378;28;20040;-66
2022/05/02 00:33:08;;;;;;;13.38;7.72;;;4.20;88.50;;;;;;5044706;28;20048;-65
2022/05/02 00:35:33;;;;;;;13.85;8.57;;;4.20;88.50;;;;;;5033719;28;20033;-65
2022/05/02 00:37:59;;;;;;;13.98;8.57;;;4.20;89.30;;;;;;5033950;28;20045;-64
2022/05/02 00:40:25;;;;;;;15.27;9.25;;;4.10;88.80;;;;;;5038950;28;20033;-65
2022/05/02 00:42:51;;;;;;;11.40;8.43;;;4.20;89.10;;;;;;5043496;28;20725;-65
2022/05/02 00:45:18;;;;;;;14.48;9.10;;;4.10;89.10;;;;;;5035086;28;20037;-65
2022/05/02 00:47:54;;;;;;;17.10;8.77;;;4.10;89.50;;;;;;5038541;28;20045;-65
2022/05/02 00:50:42;;;;;;;15.10;8.60;;;4.10;89.80;;;;;;5046052;28;20048;-65
2022/05/02 00:53:15;;;;;;;13.77;8.25;;;4.10;90.10;;;;;;5043254;28;20040;-65
2022/05/02 00:55:42;;;;;;;15.45;8.32;;;4.10;90.00;;;;;;5034296;28;20128;-64
2022/05/02 00:58:08;;;;;;;15.48;8.15;;;4.10;89.70;;;;;;5032188;28;20040;-64
2022/05/02 01:00:36;;;;;;;13.57;8.45;;;4.10;89.70;;;;;;5047337;28;20568;-64
2022/05/02 01:03:03;;;;;;;12.25;7.75;;;4.10;89.60;;;;;;5037420;28;20046;-65
2022/05/02 01:05:29;;;;;;;13.60;8.82;;;4.00;89.80;;;;;;5041340;28;20393;-65
2022/05/02 01:07:55;;;;;;;14.05;9.48;;;4.00;90.00;;;;;;5047437;28;20051;-65
2022/05/02 01:10:21;;;;;;;13.57;8.45;;;3.90;90.50;;;;;;5033801;28;20480;-65
2022/05/02 01:12:48;;;;;;;14.18;8.57;;;3.90;90.10;;;;;;5044202;28;20060;-65
2022/05/02 01:15:16;;;;;;;14.70;8.55;;;3.90;90.00;;;;;;5036622;28;20044;-65
2022/05/02 01:17:42;;;;;;;13.18;8.45;;;3.80;90.00;;;;;;5030441;28;20041;-65
2022/05/02 01:20:12;;;;;;;12.90;8.93;;;3.70;90.00;;;;;;5041610;28;20086;-65
2022/05/02 01:22:38;;;;;;;18.02;9.10;;;3.80;90.10;;;;;;5041975;28;20049;-65
2022/05/02 01:25:04;;;;;;;14.48;8.80;;;3.80;90.20;;;;;;5028861;28;20496;-65
2022/05/02 01:27:30;;;;;;;14.73;8.98;;;3.80;90.20;;;;;;5039569;28;20535;-65
2022/05/02 01:29:55;;;;;;;19.02;9.45;;;3.80;90.30;;;;;;5043591;28;20118;-65
2022/05/02 01:32:21;;;;;;;13.52;8.40;;;3.80;90.20;;;;;;5036140;28;20719;-65
2022/05/02 01:34:46;;;;;;;12.18;8.32;;;3.80;90.20;;;;;;5045658;28;20094;-65
2022/05/02 01:37:14;;;;;;;12.65;8.23;;;3.80;90.10;;;;;;5042562;28;20040;-65
2022/05/02 01:39:41;;;;;;;12.55;7.57;;;3.80;90.10;;;;;;5038840;28;20091;-64
2022/05/02 01:42:08;;;;;;;14.00;8.13;;;3.60;89.80;;;;;;5041630;28;20041;-65
2022/05/02 01:44:35;;;;;;;13.93;8.80;;;3.50;90.10;;;;;;5033845;28;20669;-64
2022/05/02 01:47:02;;;;;;;15.48;9.20;;;3.50;90.50;;;;;;5042770;28;20033;-65
2022/05/02 01:49:27;;;;;;;14.82;9.57;;;3.50;90.60;;;;;;5051909;28;20052;-65
2022/05/02 01:51:54;;;;;;;15.93;9.32;;;3.50;90.40;;;;;;5030219;28;20529;-65
2022/05/02 01:54:20;;;;;;;15.65;9.27;;;3.50;90.50;;;;;;5048777;28;20068;-64
2022/05/02 01:56:46;;;;;;;14.98;8.98;;;3.60;90.40;;;;;;5047638;28;20037;-64
2022/05/02 01:59:11;;;;;;;17.05;9.20;;;3.60;90.50;;;;;;5035888;28;20049;-64
2022/05/02 02:01:37;;;;;;;16.80;9.20;;;3.60;90.40;;;;;;5046223;28;20404;-65
2022/05/02 02:06:49;;;;;;;15.93;9.23;;;3.40;90.30;;;;;;5035565;28;20053;-64
2022/05/02 02:09:15;;;;;;;18.67;8.75;;;3.40;90.50;;;;;;5033045;28;20042;-65
2022/05/02 02:11:40;;;;;;;17.15;9.32;;;3.40;90.60;;;;;;5046297;28;20060;-64
2022/05/02 02:14:06;;;;;;;17.35;9.73;;;3.40;90.60;;;;;;5040971;28;20040;-65
2022/05/02 02:16:32;;;;;;;15.13;8.52;;;3.30;90.60;;;;;;5042339;28;20182;-65
2022/05/02 02:18:57;;;;;;;14.57;9.20;;;3.30;90.60;;;;;;5043874;28;20048;-64
2022/05/02 02:21:23;;;;;;;16.30;9.13;;;3.30;90.70;;;;;;5042625;28;20538;-65
2022/05/02 02:23:48;;;;;;;14.13;8.35;;;3.20;90.70;;;;;;5038333;28;20068;-65
2022/05/02 02:26:14;;;;;;;16.50;10.02;;;3.20;90.60;;;;;;5031929;28;20098;-64
2022/05/02 02:28:40;;;;;;;14.40;9.68;;;3.20;90.80;;;;;;5030385;28;20118;-65
2022/05/02 02:31:05;;;;;;;15.00;9.45;;;3.20;90.70;;;;;;5041423;28;20040;-65
2022/05/02 02:33:31;;;;;;;17.88;11.00;;;3.10;90.60;;;;;;5044474;28;20120;-64
2022/05/02 02:35:56;;;;;;;14.07;10.05;;;3.10;91.00;;;;;;5042224;28;20454;-65
2022/05/02 02:38:22;;;;;;;17.17;10.05;;;3.10;91.00;;;;;;5033883;28;20143;-65
2022/05/02 02:40:47;;;;;;;16.17;10.13;;;3.10;90.90;;;;;;5031950;28;20061;-65
2022/05/02 02:43:13;;;;;;;14.13;9.32;;;3.00;90.90;;;;;;5042494;28;20029;-65
2022/05/02 02:45:39;;;;;;;14.77;9.63;;;3.10;91.00;;;;;;5037396;28;20044;-65
2022/05/02 02:48:05;;;;;;;15.77;9.45;;;3.10;91.10;;;;;;5036827;28;20130;-64
2022/05/02 02:50:30;;;;;;;16.30;9.93;;;3.10;90.90;;;;;;5032304;28;20040;-65
2022/05/02 02:52:56;;;;;;;19.63;10.13;;;3.00;90.90;;;;;;5034360;28;20435;-64
2022/05/02 02:55:22;;;;;;;18.27;10.13;;;3.00;91.20;;;;;;5031374;28;20650;-64
2022/05/02 02:57:47;;;;;;;17.05;9.45;;;2.90;91.30;;;;;;5029335;28;20045;-65
2022/05/02 03:00:13;;;;;;;16.45;10.30;;;2.80;91.30;;;;;;5037286;28;20151;-65
2022/05/02 03:02:41;;;;;;;21.70;10.45;;;2.80;91.80;;;;;;5045424;28;20157;-64
2022/05/02 03:07:51;;;;;;;17.30;9.50;;;2.80;91.40;;;;;;5044969;28;20497;-64
2022/05/02 03:10:17;;;;;;;16.95;9.48;;;2.80;92.00;;;;;;5048524;28;20025;-64
2022/05/02 03:12:43;;;;;;;17.17;9.20;;;2.80;92.30;;;;;;5028647;28;20044;-64
2022/05/02 03:15:09;;;;;;;18.48;10.85;;;2.70;92.00;;;;;;5035008;28;20032;-64
2022/05/02 03:17:34;;;;;;;13.02;8.75;;;2.70;91.90;;;;;;5043443;28;20049;-64
2022/05/02 03:20:00;;;;;;;16.00;9.88;;;2.70;91.70;;;;;;5041763;28;20045;-65
2022/05/02 03:22:25;;;;;;;16.63;9.45;;;2.60;91.50;;;;;;5046666;28;20040;-65
2022/05/02 03:24:51;;;;;;;17.60;10.20;;;2.60;91.50;;;;;;5045385;28;20048;-65
2022/05/02 03:27:16;;;;;;;15.23;9.38;;;2.60;91.50;;;;;;5044230;28;20052;-64
2022/05/02 03:29:42;;;;;;;15.50;9.23;;;2.70;91.60;;;;;;5045264;28;20041;-65
2022/05/02 03:32:08;;;;;;;15.95;9.57;;;2.70;91.50;;;;;;5039052;28;20044;-65
2022/05/02 03:34:33;;;;;;;18.35;10.10;;;2.60;91.70;;;;;;5047225;28;20069;-65
2022/05/02 03:36:59;;;;;;;18.25;9.38;;;2.60;91.30;;;;;;5046720;28;20037;-64
2022/05/02 03:39:24;;;;;;;14.18;9.23;;;2.50;91.40;;;;;;5046919;28;20688;-64
2022/05/02 03:41:50;;;;;;;18.10;9.68;;;2.50;91.50;;;;;;5043442;28;20047;-64
2022/05/02 03:44:15;;;;;;;17.80;9.63;;;2.50;91.40;;;;;;5040673;28;20673;-65
2022/05/02 03:46:41;;;;;;;16.73;9.57;;;2.50;91.50;;;;;;5036889;28;20039;-64
2022/05/02 03:49:07;;;;;;;17.13;9.48;;;2.40;91.40;;;;;;5036653;28;20041;-64
2022/05/02 03:51:32;;;;;;;22.55;10.52;;;2.40;91.40;;;;;;5041157;28;20541;-64
2022/05/02 03:53:58;;;;;;;17.80;9.82;;;2.40;91.50;;;;;;5049895;28;20134;-64
2022/05/02 03:56:24;;;;;;;16.63;9.15;;;2.40;91.60;;;;;;5042394;28;20056;-64
2022/05/02 03:58:49;;;;;;;14.52;8.45;;;2.40;91.50;;;;;;5039537;28;20088;-65
2022/05/02 04:01:15;;;;;;;17.05;10.13;;;2.50;91.60;;;;;;5045466;28;20087;-65
2022/05/02 04:03:40;;;;;;;15.57;9.57;;;2.40;91.50;;;;;;5047225;28;20493;-64
2022/05/02 04:06:06;;;;;;;17.83;9.82;;;2.30;91.40;;;;;;5040883;28;20591;-64
2022/05/02 04:08:31;;;;;;;20.05;10.50;;;2.30;91.60;;;;;;5052892;28;20047;-65
2022/05/02 04:10:57;;;;;;;16.30;9.77;;;2.30;92.10;;;;;;5042054;28;20087;-65
2022/05/02 04:13:22;;;;;;;19.65;9.95;;;2.30;92.00;;;;;;5051363;28;20037;-64
2022/05/02 04:15:49;;;;;;;17.45;9.60;;;2.30;91.80;;;;;;5051467;28;20107;-64
2022/05/02 04:18:15;;;;;;;17.98;9.82;;;2.40;91.90;;;;;;5047412;28;20040;-64
2022/05/02 04:20:41;;;;;;;17.80;10.70;;;2.40;91.80;;;;;;5040537;28;20045;-65
2022/05/02 04:23:06;;;;;;;17.92;10.50;;;2.50;92.00;;;;;;5039581;28;20769;-64
2022/05/02 04:25:32;;;;;;;19.95;10.40;;;2.40;91.80;;;;;;5047718;28;20063;-64
2022/05/02 04:27:57;;;;;;;17.95;10.05;;;2.40;91.60;;;;;;5041395;28;20448;-65
2022/05/02 04:30:23;;;;;;;19.73;10.73;;;2.40;91.80;;;;;;5050081;28;20209;-65
2022/05/02 04:32:48;;;;;;;17.85;10.00;;;2.40;92.00;;;;;;5048424;28;20040;-65
2022/05/02 04:35:15;;;;;;;17.08;10.63;;;2.40;92.00;;;;;;5044512;28;20060;-65
2022/05/02 04:37:40;;;;;;;20.88;10.82;;;2.40;91.90;;;;;;5037348;28;20040;-65
2022/05/02 04:40:06;;;;;;;22.23;12.30;;;2.50;92.00;;;;;;5042147;28;20443;-64
2022/05/02 04:42:32;;;;;;;16.73;10.80;;;2.50;92.10;;;;;;5040615;28;20106;-64
2022/05/02 04:44:58;;;;;;;21.35;9.95;;;2.50;91.90;;;;;;5048122;28;20045;-65
2022/05/02 04:47:23;;;;;;;19.23;10.43;;;2.50;92.40;;;;;;5040201;28;20053;-64
2022/05/02 04:49:49;;;;;;;16.83;9.82;;;2.60;92.10;;;;;;5038883;28;20264;-64
2022/05/02 04:52:14;;;;;;;17.23;10.50;;;2.60;91.90;;;;;;5034029;28;20041;-64
2022/05/02 04:54:40;;;;;;;20.33;11.10;;;2.60;92.20;;;;;;5036140;28;20051;-64
2022/05/02 04:57:06;;;;;;;19.58;11.23;;;2.70;92.00;;;;;;5034388;28;20112;-64
2022/05/02 04:59:32;;;;;;;19.20;11.18;;;2.80;92.20;;;;;;5036230;28;20075;-64
2022/05/02 05:01:58;;;;;;;22.85;11.85;;;2.90;92.10;;;;;;5033124;28;20524;-64
2022/05/02 05:04:24;;;;;;;21.00;12.27;;;3.00;92.20;;;;;;5049440;28;20568;-65
2022/05/02 05:06:49;;;;;;;26.60;13.23;;;3.00;92.30;;;;;;5034581;28;20037;-65
2022/05/02 05:09:15;;;;;;;24.75;13.43;;;3.10;92.50;;;;;;5031887;28;20531;-65
2022/05/02 05:11:50;;;;;;;21.80;12.63;;;3.30;92.60;;;;;;5047202;28;20041;-64
2022/05/02 05:18:08;;;;;;;25.70;14.40;;;3.60;93.30;;;;;;5032826;28;20053;-65
2022/05/02 05:20:38;;;;;;;25.63;14.63;;;3.80;93.50;;;;;;5032063;28;20045;-65
2022/05/02 05:23:26;;;;;;;23.00;13.88;;;3.90;93.30;;;;;;5032068;28;20431;-65
2022/05/02 05:26:42;;;;;;;27.80;16.13;;;4.10;93.30;;;;;;5040015;28;20052;-65
2022/05/02 05:30:08;;;;;;;23.88;14.30;;;4.30;94.10;;;;;;4999353;28;20056;-65
2022/05/02 05:32:44;;;;;;;23.25;14.45;;;4.50;94.70;;;;;;4962102;28;20188;-66
2022/05/02 05:35:11;;;;;;;25.92;14.85;;;4.60;93.60;;;;;;5034645;28;20045;-65
2022/05/02 05:38:03;;;;;;;26.05;15.45;;;4.70;93.40;;;;;;5038559;28;20112;-65
2022/05/02 05:40:46;;;;;;;28.23;15.20;;;4.90;93.50;;;;;;5037254;28;20045;-65
2022/05/02 05:43:21;;;;;;;25.30;15.45;;;5.10;93.50;;;;;;5034420;28;20099;-66
2022/05/02 05:46:09;;;;;;;23.55;14.20;;;5.20;93.20;;;;;;5044614;28;20033;-66
2022/05/02 05:49:29;;;;;;;24.40;14.93;;;5.40;93.30;;;;;;5042803;28;20048;-66
2022/05/02 05:52:23;;;;;;;27.83;15.82;;;5.70;93.60;;;;;;5008525;28;20139;-66
2022/05/02 05:55:05;;;;;;;22.60;15.02;;;5.90;93.50;;;;;;5032483;28;20053;-66
2022/05/02 05:57:48;;;;;;;22.58;14.30;;;6.10;93.70;;;;;;5032581;28;20056;-67
2022/05/02 06:00:15;;;;;;;22.48;14.68;;;6.30;94.20;;;;;;5041066;28;20038;-66
2022/05/02 06:03:18;;;;;;;21.85;13.88;;;6.50;94.00;;;;;;5029494;28;20044;-66
2022/05/02 06:05:46;;;;;;;21.75;14.07;;;6.70;93.80;;;;;;5038064;28;20168;-66
2022/05/02 06:08:23;;;;;;;19.60;14.52;;;6.90;94.30;;;;;;5038689;28;20041;-66
2022/05/02 06:10:57;;;;;;;16.88;13.20;;;7.10;94.40;;;;;;5038003;28;20075;-66
2022/05/02 06:13:27;;;;;;;20.30;12.93;;;7.40;94.10;;;;;;5039078;28;20045;-66
2022/05/02 06:18:43;;;;;;;18.02;13.38;;;7.80;93.90;;;;;;5032433;28;20053;-66
2022/05/02 06:21:08;;;;;;;19.58;13.35;;;8.20;93.80;;;;;;5041366;28;20044;-66
2022/05/02 06:23:47;;;;;;;16.85;12.75;;;8.40;93.80;;;;;;5050170;28;20508;-67
2022/05/02 06:26:16;;;;;;;16.98;12.38;;;8.60;92.10;;;;;;5044801;28;20037;-67
2022/05/02 06:28:44;;;;;;;16.25;12.20;;;8.90;93.10;;;;;;5030774;28;20037;-66
2022/05/02 06:31:15;;;;;;;17.45;12.23;;;9.20;92.70;;;;;;5041397;28;20030;-66
2022/05/02 06:33:44;;;;;;;20.55;13.18;;;9.40;92.60;;;;;;5042393;28;20052;-66
2022/05/02 06:36:47;;;;;;;17.30;12.68;;;9.70;92.00;;;;;;5048943;28;20075;-67
2022/05/02 06:39:16;;;;;;;14.90;12.55;;;10.00;89.20;;;;;;5049832;28;20095;-67
2022/05/02 06:41:50;;;;;;;19.63;13.25;;;10.10;90.90;;;;;;5045235;28;20045;-66
2022/05/02 06:44:21;;;;;;;17.15;12.18;;;10.40;90.60;;;;;;5049306;28;20033;-67
2022/05/02 06:47:16;;;;;;;17.00;11.73;;;10.60;90.00;;;;;;5045075;28;20076;-67
2022/05/02 06:49:43;;;;;;;17.08;11.75;;;10.90;88.00;;;;;;5035335;28;20037;-67
2022/05/02 06:52:11;;;;;;;15.35;10.95;;;11.10;88.10;;;;;;5041322;28;20114;-67
2022/05/02 06:55:04;;;;;;;11.00;9.80;;;11.40;86.00;;;;;;5048992;28;20058;-67
2022/05/02 06:57:37;;;;;;;12.93;10.00;;;11.50;80.80;;;;;;5036877;28;20112;-67
2022/05/02 07:00:15;;;;;;;11.23;9.65;;;11.80;81.50;;;;;;5033034;28;20435;-67
2022/05/02 07:03:20;;;;;;;12.48;8.23;;;12.00;81.40;;;;;;5050515;28;20036;-67
2022/05/02 07:05:52;;;;;;;13.30;8.52;;;12.20;74.00;;;;;;5055294;28;20037;-67
2022/05/02 07:08:29;;;;;;;12.20;8.25;;;12.40;76.90;;;;;;5036292;28;20073;-67
2022/05/02 07:11:07;;;;;;;12.90;8.63;;;12.70;72.90;;;;;;5038091;28;20041;-68
2022/05/02 07:13:59;;;;;;;7.88;7.05;;;12.80;74.80;;;;;;5046220;28;20041;-67
2022/05/02 07:16:25;;;;;;;10.10;7.40;;;13.10;73.80;;;;;;5053515;28;20373;-67
2022/05/02 07:19:28;;;;;;;11.63;7.90;;;13.20;74.90;;;;;;5043000;28;20511;-67
2022/05/02 07:22:09;;;;;;;8.95;7.30;;;13.60;68.80;;;;;;5041991;28;20171;-67
2022/05/02 07:24:45;;;;;;;11.98;8.10;;;13.70;66.60;;;;;;5052308;28;20056;-68
2022/05/02 07:27:35;;;;;;;12.27;7.45;;;14.00;70.70;;;;;;5052583;28;20178;-68
2022/05/02 07:30:01;;;;;;;13.73;7.63;;;14.20;66.00;;;;;;5034720;28;20099;-67
2022/05/02 07:32:27;;;;;;;10.93;7.28;;;14.30;69.50;;;;;;5047529;28;20033;-67
2022/05/02 07:34:55;;;;;;;9.65;6.50;;;14.60;68.80;;;;;;5044781;28;20040;-68
2022/05/02 07:37:22;;;;;;;6.72;6.00;;;14.60;67.50;;;;;;5034903;28;20041;-67
2022/05/02 07:39:49;;;;;;;10.40;7.00;;;14.80;66.30;;;;;;5054098;28;20139;-68
2022/05/02 07:42:15;;;;;;;8.13;6.80;;;15.10;66.00;;;;;;5042179;28;20047;-68
2022/05/02 07:44:43;;;;;;;11.70;7.40;;;15.30;65.40;;;;;;5049433;28;20045;-68
2022/05/02 07:47:11;;;;;;;7.65;6.32;;;15.30;64.50;;;;;;5038850;28;20083;-68
2022/05/02 07:49:39;;;;;;;9.25;6.82;;;15.50;64.50;;;;;;5048966;28;20103;-67
2022/05/02 07:52:07;;;;;;;10.05;6.47;;;15.80;63.30;;;;;;5051715;28;20041;-67
2022/05/02 07:54:39;;;;;;;9.85;6.78;;;15.80;62.50;;;;;;5050978;28;20084;-68
2022/05/02 07:57:07;;;;;;;11.18;7.22;;;16.10;60.80;;;;;;5049314;28;20051;-68
2022/05/02 07:59:38;;;;;;;8.00;6.68;;;16.20;61.40;;;;;;5054119;28;20094;-69
2022/05/02 08:02:05;;;;;;;7.93;6.03;;;16.70;59.80;;;;;;5044606;28;20041;-68
2022/05/02 08:04:31;;;;;;;6.47;5.88;;;17.10;59.90;;;;;;5031724;28;20098;-68
2022/05/02 08:07:09;;;;;;;9.48;6.60;;;17.30;59.40;;;;;;5043107;28;20083;-68
2022/05/02 08:10:33;;;;;;;7.45;6.25;;;17.60;56.60;;;;;;5044500;28;20110;-68
2022/05/02 08:13:36;;;;;;;8.60;6.72;;;18.00;53.20;;;;;;5025789;28;20051;-68
2022/05/02 08:16:05;;;;;;;7.65;6.35;;;18.10;52.50;;;;;;5043861;28;20053;-68
2022/05/02 08:18:46;;;;;;;7.70;6.20;;;18.30;54.20;;;;;;5041596;28;20044;-68
2022/05/02 08:21:16;;;;;;;10.43;6.18;;;18.40;53.80;;;;;;5024849;28;20497;-69
2022/05/02 08:27:27;;;;;;;8.93;5.88;;;19.40;50.40;;;;;;5014074;28;20049;-69
2022/05/02 08:30:04;;;;;;;7.32;5.97;;;19.60;50.10;;;;;;5044564;28;20060;-69
2022/05/02 08:32:59;;;;;;;8.80;4.85;;;19.70;50.00;;;;;;5050780;28;20144;-70
2022/05/02 08:35:37;;;;;;;8.43;5.63;;;20.20;46.70;;;;;;5033414;28;20038;-70
2022/05/02 08:38:33;;;;;;;8.90;5.90;;;20.80;47.20;;;;;;5037192;28;20048;-70
2022/05/02 08:41:16;;;;;;;6.07;5.47;;;21.20;44.90;;;;;;5044514;28;20064;-69
2022/05/02 08:44:09;;;;;;;7.35;5.78;;;21.30;44.30;;;;;;5051421;28;20049;-69
2022/05/02 08:46:55;;;;;;;7.75;6.25;;;21.30;43.70;;;;;;5040543;28;20040;-70
2022/05/02 08:50:08;;;;;;;8.25;5.70;;;21.80;41.40;;;;;;5036027;28;20117;-69
2022/05/02 08:52:54;;;;;;;7.45;5.45;;;22.00;38.90;;;;;;4994648;28;20502;-69
2022/05/02 08:55:44;;;;;;;7.53;5.30;;;22.30;39.60;;;;;;5008829;28;20561;-70
2022/05/02 08:58:15;;;;;;;10.30;6.75;;;22.90;39.80;;;;;;5027608;28;20110;-68
2022/05/02 09:00:41;;;;;;;6.65;5.78;;;23.50;37.60;;;;;;5051182;28;20052;-69
2022/05/02 09:03:34;;;;;;;8.25;5.50;;;23.50;38.40;;;;;;5051443;28;20041;-70
2022/05/02 09:06:24;;;;;;;8.10;6.32;;;23.90;35.90;;;;;;5047246;28;20049;-69
2022/05/02 09:09:10;;;;;;;8.15;5.47;;;24.20;35.30;;;;;;5046977;28;20496;-68
2022/05/02 09:12:06;;;;;;;7.80;5.45;;;24.00;36.10;;;;;;5045550;28;20040;-69
2022/05/02 09:14:57;;;;;;;7.30;5.50;;;24.60;34.60;;;;;;5043196;28;20090;-69
2022/05/02 09:17:44;;;;;;;8.10;5.78;;;25.20;34.80;;;;;;5048493;28;20063;-70
2022/05/02 09:20:27;;;;;;;7.38;5.45;;;25.40;33.70;;;;;;5051070;28;20051;-70
2022/05/02 09:23:11;;;;;;;8.98;5.78;;;25.70;31.90;;;;;;5051574;28;20041;-69
2022/05/02 09:26:05;;;;;;;6.50;5.35;;;25.60;31.40;;;;;;5045253;28;20033;-69
2022/05/02 09:28:53;;;;;;;6.47;5.75;;;26.40;31.10;;;;;;5042704;28;20047;-69
2022/05/02 09:31:56;;;;;;;7.65;6.00;;;26.00;30.40;;;;;;5036980;28;20120;-70
2022/05/02 09:34:46;;;;;;;7.05;5.40;;;25.80;29.50;;;;;;5038768;28;20373;-70
2022/05/02 09:37:21;;;;;;;6.77;5.33;;;25.90;30.30;;;;;;5035843;28;20067;-70
2022/05/02 09:39:52;;;;;;;8.52;6.63;;;25.10;31.00;;;;;;5050933;28;20392;-69
2022/05/02 09:42:45;;;;;;;7.13;5.75;;;24.00;31.70;;;;;;5049474;28;20732;-69
2022/05/02 09:51:58;;;;;;;7.75;5.50;;;22.00;32.20;;;;;;5038232;28;20098;-68
2022/05/02 09:57:17;;;;;;;6.53;5.88;;;22.20;32.60;;;;;;5043490;28;20131;-67
2022/05/02 10:01:06;;;;;;;6.05;5.28;;;21.90;33.00;;;;;;5041565;28;20049;-67
2022/05/02 10:02:46;;;;;;;7.15;5.05;;;22.20;32.00;;;;;;5044627;28;20102;-69
2022/05/02 10:05:29;;;;;;;5.82;5.00;;;22.60;32.10;;;;;;5047527;28;20052;-69
2022/05/02 10:08:26;;;;;;;7.32;5.07;;;23.90;31.70;;;;;;5039365;28;20045;-69
2022/05/02 10:10:59;;;;;;;11.63;5.55;;;25.40;29.10;;;;;;5036707;28;20052;-68
2022/05/02 10:13:44;;;;;;;9.07;6.28;;;25.50;28.80;;;;;;5042697;28;20520;-67
2022/05/02 10:16:19;;;;;;;6.00;5.10;;;25.60;28.10;;;;;;5040019;28;20090;-68
2022/05/02 10:19:17;;;;;;;8.55;5.75;;;25.10;28.10;;;;;;5032396;28;20041;-68
2022/05/02 10:21:42;;;;;;;9.77;5.90;;;24.60;27.50;;;;;;5014572;28;20068;-68
2022/05/02 10:24:27;;;;;;;6.68;5.20;;;23.30;29.00;;;;;;5040200;28;20573;-69
2022/05/02 10:27:22;;;;;;;5.97;4.95;;;22.40;29.60;;;;;;5032067;28;20669;-67
2022/05/02 10:30:02;;;;;;;7.35;5.47;;;21.90;30.90;;;;;;5035412;28;20160;-68
2022/05/02 10:32:50;;;;;;;6.28;5.68;;;21.40;31.90;;;;;;5042428;28;20044;-66
2022/05/02 10:35:19;;;;;;;7.32;5.40;;;21.50;31.60;;;;;;5043412;28;20037;-67
2022/05/02 10:37:59;;;;;;;6.93;5.25;;;21.20;32.40;;;;;;5043286;28;20072;-67
2022/05/02 10:40:38;;;;;;;5.30;4.80;;;21.30;32.60;;;;;;5035254;28;20057;-67
2022/05/02 10:43:06;;;;;;;7.00;5.50;;;21.20;31.50;;;;;;5036815;28;20167;-69
2022/05/02 10:45:34;;;;;;;5.82;5.22;;;20.70;33.10;;;;;;5046207;28;20154;-69
2022/05/02 10:48:12;;;;;;;5.85;5.10;;;20.50;32.90;;;;;;5031614;28;20500;-68
2022/05/02 10:50:38;;;;;;;5.72;4.43;;;20.10;34.20;;;;;;5044276;28;20037;-68
2022/05/02 10:53:30;;;;;;;5.90;4.57;;;19.90;34.60;;;;;;5018657;28;20037;-68
2022/05/02 10:56:35;;;;;;;6.13;4.50;;;19.80;35.40;;;;;;5005779;28;20045;-68
2022/05/02 10:59:03;;;;;;;6.85;4.97;;;19.80;36.20;;;;;;5034493;28;20048;-67
2022/05/02 11:02:05;;;;;;;8.18;5.63;;;19.80;36.50;;;;;;5037186;28;20552;-68
2022/05/02 11:04:51;;;;;;;6.45;4.40;;;19.70;36.90;;;;;;5032920;28;20052;-68
2022/05/02 11:07:44;;;;;;;6.97;5.13;;;20.00;36.80;;;;;;5045726;28;20044;-67
2022/05/02 11:10:13;;;;;;;5.93;5.03;;;19.90;36.20;;;;;;5051191;28;20097;-67
2022/05/02 11:13:04;;;;;;;7.97;5.53;;;20.00;36.40;;;;;;5046428;28;22228;-67
2022/05/02 11:15:44;;;;;;;6.78;4.70;;;19.30;35.00;;;;;;5041283;28;20381;-67
2022/05/02 11:21:22;;;;;;;7.03;5.07;;;19.20;37.50;;;;;;5049478;28;20061;-68
2022/05/02 11:24:27;;;;;;;7.72;4.78;;;19.50;37.10;;;;;;5014697;28;20069;-67
2022/05/02 11:27:07;;;;;;;5.82;4.93;;;19.30;35.80;;;;;;5043531;28;20052;-67
2022/05/02 11:30:08;;;;;;;7.07;5.03;;;19.10;35.50;;;;;;5049917;28;20078;-67
2022/05/02 11:32:39;;;;;;;8.32;4.80;;;18.90;34.70;;;;;;5049834;28;20124;-67
2022/05/02 11:35:24;;;;;;;5.93;4.20;;;18.70;35.90;;;;;;5051698;28;20043;-67
2022/05/02 11:38:08;;;;;;;9.82;3.92;;;18.90;36.40;;;;;;5040261;28;20035;-68
2022/05/02 11:40:41;;;;;;;6.03;3.38;;;19.10;35.60;;;;;;5049857;28;20060;-67
2022/05/02 11:43:08;;;;;;;4.70;3.83;;;19.20;36.10;;;;;;5048693;28;20045;-68
2022/05/02 11:45:43;;;;;;;5.25;3.53;;;19.20;35.50;;;;;;5035984;28;20108;-68
2022/05/02 11:48:20;;;;;;;7.40;4.25;;;19.30;35.10;;;;;;5038459;28;20103;-66
2022/05/02 11:50:48;;;;;;;5.78;4.65;;;19.20;34.30;;;;;;5041279;28;20428;-67
2022/05/02 11:53:16;;;;;;;7.97;5.05;;;18.90;34.20;;;;;;5045515;28;20029;-65
2022/05/02 11:55:44;;;;;;;7.63;4.82;;;18.80;35.00;;;;;;5053892;28;20045;-65
2022/05/02 11:58:25;;;;;;;6.90;4.18;;;18.70;35.60;;;;;;5046256;28;20650;-66
2022/05/02 12:01:20;;;;;;;7.20;4.18;;;18.70;36.10;;;;;;5054038;28;20190;-67
2022/05/02 12:03:53;;;;;;;6.40;4.75;;;18.80;36.00;;;;;;5037339;28;20050;-66
2022/05/02 12:06:30;;;;;;;7.07;4.95;;;19.00;35.00;;;;;;5033186;28;20049;-66
2022/05/02 12:08:59;;;;;;;8.90;5.50;;;18.90;34.70;;;;;;5041604;28;20041;-67
2022/05/02 12:11:24;;;;;;;5.35;4.82;;;18.90;35.40;;;;;;5052611;28;20044;-67
2022/05/02 12:13:51;;;;;;;9.45;5.80;;;19.40;35.90;;;;;;5035404;28;20052;-67
2022/05/02 12:16:18;;;;;;;6.93;5.97;;;19.60;36.10;;;;;;5041999;28;20112;-68
2022/05/02 12:18:52;;;;;;;5.38;4.47;;;20.10;36.10;;;;;;5054576;28;20037;-67
2022/05/02 12:21:41;;;;;;;7.65;5.00;;;20.30;36.20;;;;;;5049319;28;20095;-67
2022/05/02 12:24:09;;;;;;;14.20;6.25;;;20.20;36.00;;;;;;5050606;28;20135;-66
2022/05/02 12:26:46;;;;;;;7.13;5.55;;;20.00;35.20;;;;;;5046806;28;20534;-66
2022/05/02 12:29:18;;;;;;;7.45;4.90;;;19.60;35.00;;;;;;5052034;28;20047;-65
2022/05/02 12:31:59;;;;;;;7.35;4.60;;;19.80;34.90;;;;;;5051635;28;20130;-66
2022/05/02 12:34:39;;;;;;;5.47;4.78;;;20.10;33.70;;;;;;5034671;28;20116;-68
2022/05/02 12:37:30;;;;;;;5.78;5.18;;;20.60;33.40;;;;;;5036289;28;20036;-68
2022/05/02 12:40:11;;;;;;;6.30;5.07;;;22.30;33.10;;;;;;5052435;28;20052;-66
2022/05/02 12:42:57;;;;;;;7.47;4.13;;;24.40;30.00;;;;;;5036744;28;20094;-68
2022/05/02 12:45:23;;;;;;;8.38;5.68;;;26.30;28.90;;;;;;5044363;28;20048;-67
2022/05/02 12:47:59;;;;;;;8.55;5.47;;;28.10;27.10;;;;;;5053082;28;20150;-66
2022/05/02 12:50:29;;;;;;;6.30;5.18;;;29.40;25.90;;;;;;5052130;28;20382;-68
2022/05/02 12:52:57;;;;;;;9.00;5.07;;;30.20;25.70;;;;;;5045800;28;20030;-68
2022/05/02 12:55:31;;;;;;;7.15;5.80;;;31.30;25.30;;;;;;5043259;28;20053;-68
2022/05/02 13:00:46;;;;;;;7.40;4.70;;;32.00;24.00;;;;;;5038246;28;20504;-68
2022/05/02 13:03:19;;;;;;;6.28;5.00;;;30.40;24.60;;;;;;5033067;28;20045;-69
2022/05/02 13:06:05;;;;;;;5.07;4.32;;;31.50;24.80;;;;;;5042153;28;20121;-68
2022/05/02 13:08:31;;;;;;;5.40;4.07;;;31.80;24.00;;;;;;5039840;28;20375;-68
2022/05/02 13:11:19;;;;;;;4.75;3.70;;;32.60;24.20;;;;;;5031298;28;20037;-68
2022/05/02 13:13:52;;;;;;;4.97;4.10;;;33.90;21.60;;;;;;5031767;28;20037;-67
2022/05/02 13:16:28;;;;;;;5.18;4.43;;;34.00;22.70;;;;;;5031304;28;20025;-69
2022/05/02 13:18:55;;;;;;;7.32;5.40;;;34.60;22.50;;;;;;5035903;28;20034;-67
2022/05/02 13:21:21;;;;;;;6.85;4.97;;;34.50;22.40;;;;;;5038273;28;20080;-66
2022/05/02 13:23:51;;;;;;;5.13;4.57;;;34.70;21.60;;;;;;5045167;28;20461;-68
2022/05/02 13:26:37;;;;;;;8.33;5.57;;;34.40;22.10;;;;;;5050343;28;20656;-68
2022/05/02 13:29:22;;;;;;;9.30;6.22;;;33.40;22.10;;;;;;5046109;28;20041;-68
2022/05/02 13:32:04;;;;;;;5.35;4.03;;;34.10;21.60;;;;;;5051183;28;20045;-67
2022/05/02 13:34:43;;;;;;;7.43;5.65;;;34.20;22.00;;;;;;5039129;28;20040;-68
2022/05/02 13:37:14;;;;;;;7.00;5.47;;;34.30;22.80;;;;;;5034355;28;20041;-68
2022/05/02 13:40:01;;;;;;;6.15;5.05;;;34.80;22.10;;;;;;5040457;28;20041;-69
2022/05/02 13:42:41;;;;;;;6.03;5.30;;;34.70;21.40;;;;;;5049083;28;20040;-67
2022/05/02 13:45:42;;;;;;;7.57;6.10;;;34.70;20.20;;;;;;5050538;28;20072;-66
2022/05/02 13:49:06;;;;;;;7.13;5.43;;;34.60;20.50;;;;;;5038853;28;20087;-68
2022/05/02 13:51:38;;;;;;;6.35;5.72;;;34.50;20.90;;;;;;5024662;28;20041;-68